sensor_id;sensor_type;location;lat;lon;timestamp;pressure;altitude;pressure_sealevel;temperature;humidity
51417;BME280;50158;51.528;6.982;2022-10-31T00:00:12;67870;;;13.77;100
51417;BME280;50158;51.528;6.982;2022-10-31T00:01:14;67860;;;13.73;100
51417;BME280;50158;51.528;6.982;2022-10-31T00:02:12;67860;;;13.69;100
51417;BME280;50158;51.528;6.982;2022-10-31T00:03:12;67860;;;13.66;100
51417;BME280;50158;51.528;6.982;2022-10-31T00:04:12;67860;;;13.7;100
51417;BME280;50158;51.528;6.982;2022-10-31T00:05:12;67850;;;13.64;100
51417;BME280;50158;51.528;6.982;2022-10-31T00:06:13;67850;;;13.59;100
51417;BME280;50158;51.528;6.982;2022-10-31T00:07:12;67840;;;13.54;100
51417;BME280;50158;51.528;6.982;2022-10-31T00:08:13;67840;;;13.49;100
51417;BME280;50158;51.528;6.982;2022-10-31T00:09:12;67830;;;13.43;100
51417;BME280;50158;51.528;6.982;2022-10-31T00:10:12;67830;;;13.4;100
51417;BME280;50158;51.528;6.982;2022-10-31T00:11:12;67820;;;13.38;100
51417;BME280;50158;51.528;6.982;2022-10-31T00:12:12;67820;;;13.33;100
51417;BME280;50158;51.528;6.982;2022-10-31T00:13:13;67810;;;13.26;100
51417;BME280;50158;51.528;6.982;2022-10-31T00:14:12;67810;;;13.23;100
51417;BME280;50158;51.528;6.982;2022-10-31T00:15:12;67810;;;13.23;100
51417;BME280;50158;51.528;6.982;2022-10-31T00:16:13;67800;;;13.15;100
51417;BME280;50158;51.528;6.982;2022-10-31T00:17:12;67800;;;13.11;100
51417;BME280;50158;51.528;6.982;2022-10-31T00:18:12;67790;;;13.06;100
51417;BME280;50158;51.528;6.982;2022-10-31T00:19:12;67790;;;13.01;100
51417;BME280;50158;51.528;6.982;2022-10-31T00:20:13;67780;;;12.97;100
51417;BME280;50158;51.528;6.982;2022-10-31T00:21:12;67780;;;12.95;100
51417;BME280;50158;51.528;6.982;2022-10-31T00:22:12;67770;;;12.92;100
51417;BME280;50158;51.528;6.982;2022-10-31T00:23:13;67770;;;12.9;100
51417;BME280;50158;51.528;6.982;2022-10-31T00:24:13;67760;;;12.83;100
51417;BME280;50158;51.528;6.982;2022-10-31T00:25:12;67770;;;12.89;100
51417;BME280;50158;51.528;6.982;2022-10-31T00:26:13;67780;;;12.93;100
51417;BME280;50158;51.528;6.982;2022-10-31T00:27:13;67780;;;12.94;100
51417;BME280;50158;51.528;6.982;2022-10-31T00:28:13;67770;;;12.87;100
51417;BME280;50158;51.528;6.982;2022-10-31T00:29:12;67760;;;12.8;100
51417;BME280;50158;51.528;6.982;2022-10-31T00:30:12;67750;;;12.74;100
51417;BME280;50158;51.528;6.982;2022-10-31T00:31:12;67750;;;12.7;100
51417;BME280;50158;51.528;6.982;2022-10-31T00:32:12;67760;;;12.76;100
51417;BME280;50158;51.528;6.982;2022-10-31T00:33:12;67770;;;12.88;100
51417;BME280;50158;51.528;6.982;2022-10-31T00:34:13;67760;;;12.82;100
51417;BME280;50158;51.528;6.982;2022-10-31T00:35:12;67750;;;12.72;100
51417;BME280;50158;51.528;6.982;2022-10-31T00:36:13;67750;;;12.7;100
51417;BME280;50158;51.528;6.982;2022-10-31T00:37:12;67750;;;12.65;100
51417;BME280;50158;51.528;6.982;2022-10-31T00:38:13;67740;;;12.62;100
51417;BME280;50158;51.528;6.982;2022-10-31T00:39:12;67740;;;12.6;100
51417;BME280;50158;51.528;6.982;2022-10-31T00:40:12;67740;;;12.59;100
51417;BME280;50158;51.528;6.982;2022-10-31T00:41:14;67740;;;12.58;100
51417;BME280;50158;51.528;6.982;2022-10-31T00:42:11;67740;;;12.56;100
51417;BME280;50158;51.528;6.982;2022-10-31T00:44:13;67730;;;12.52;100
51417;BME280;50158;51.528;6.982;2022-10-31T00:45:12;67730;;;12.52;100
51417;BME280;50158;51.528;6.982;2022-10-31T00:46:13;67740;;;12.56;100
51417;BME280;50158;51.528;6.982;2022-10-31T00:47:12;67750;;;12.65;100
51417;BME280;50158;51.528;6.982;2022-10-31T00:48:12;67750;;;12.72;100
51417;BME280;50158;51.528;6.982;2022-10-31T00:49:12;67760;;;12.75;100
51417;BME280;50158;51.528;6.982;2022-10-31T00:50:12;67760;;;12.8;100
51417;BME280;50158;51.528;6.982;2022-10-31T00:51:13;67770;;;12.85;100
51417;BME280;50158;51.528;6.982;2022-10-31T00:52:13;67770;;;12.88;100
51417;BME280;50158;51.528;6.982;2022-10-31T00:53:13;67770;;;12.83;100
51417;BME280;50158;51.528;6.982;2022-10-31T00:54:12;67760;;;12.81;100
51417;BME280;50158;51.528;6.982;2022-10-31T00:55:13;67760;;;12.8;100
51417;BME280;50158;51.528;6.982;2022-10-31T00:56:12;67780;;;12.94;100
51417;BME280;50158;51.528;6.982;2022-10-31T00:57:13;67770;;;12.9;100
51417;BME280;50158;51.528;6.982;2022-10-31T00:58:13;67770;;;12.85;100
51417;BME280;50158;51.528;6.982;2022-10-31T00:59:12;67760;;;12.82;100
51417;BME280;50158;51.528;6.982;2022-10-31T01:00:13;67760;;;12.81;100
51417;BME280;50158;51.528;6.982;2022-10-31T01:01:13;67760;;;12.82;100
51417;BME280;50158;51.528;6.982;2022-10-31T01:02:12;67760;;;12.79;100
51417;BME280;50158;51.528;6.982;2022-10-31T01:03:12;67760;;;12.78;100
51417;BME280;50158;51.528;6.982;2022-10-31T01:04:13;67760;;;12.77;100
51417;BME280;50158;51.528;6.982;2022-10-31T01:05:12;67760;;;12.76;100
51417;BME280;50158;51.528;6.982;2022-10-31T01:06:12;67760;;;12.77;100
51417;BME280;50158;51.528;6.982;2022-10-31T01:07:11;67760;;;12.8;100
51417;BME280;50158;51.528;6.982;2022-10-31T01:08:12;67760;;;12.8;100
51417;BME280;50158;51.528;6.982;2022-10-31T01:09:12;67770;;;12.83;100
51417;BME280;50158;51.528;6.982;2022-10-31T01:10:12;67760;;;12.81;100
51417;BME280;50158;51.528;6.982;2022-10-31T01:11:13;67760;;;12.78;100
51417;BME280;50158;51.528;6.982;2022-10-31T01:12:13;67760;;;12.79;100
51417;BME280;50158;51.528;6.982;2022-10-31T01:13:12;67760;;;12.81;100
51417;BME280;50158;51.528;6.982;2022-10-31T01:14:12;67770;;;12.85;100
51417;BME280;50158;51.528;6.982;2022-10-31T01:15:13;67770;;;12.9;100
51417;BME280;50158;51.528;6.982;2022-10-31T01:17:12;67770;;;12.92;100
51417;BME280;50158;51.528;6.982;2022-10-31T01:18:12;67780;;;12.96;100
51417;BME280;50158;51.528;6.982;2022-10-31T01:19:12;67780;;;12.94;100
51417;BME280;50158;51.528;6.982;2022-10-31T01:20:13;67770;;;12.89;100
51417;BME280;50158;51.528;6.982;2022-10-31T01:21:14;67770;;;12.9;100
51417;BME280;50158;51.528;6.982;2022-10-31T01:22:12;67770;;;12.91;100
51417;BME280;50158;51.528;6.982;2022-10-31T01:23:12;67780;;;12.96;100
51417;BME280;50158;51.528;6.982;2022-10-31T01:24:12;67770;;;12.88;100
51417;BME280;50158;51.528;6.982;2022-10-31T01:25:13;67760;;;12.83;100
51417;BME280;50158;51.528;6.982;2022-10-31T01:26:14;67760;;;12.79;100
51417;BME280;50158;51.528;6.982;2022-10-31T01:27:13;67760;;;12.74;100
51417;BME280;50158;51.528;6.982;2022-10-31T01:28:13;67750;;;12.7;100
51417;BME280;50158;51.528;6.982;2022-10-31T01:29:12;67750;;;12.67;100
51417;BME280;50158;51.528;6.982;2022-10-31T01:30:13;67740;;;12.63;100
51417;BME280;50158;51.528;6.982;2022-10-31T01:31:12;67740;;;12.61;100
51417;BME280;50158;51.528;6.982;2022-10-31T01:32:12;67740;;;12.6;100
51417;BME280;50158;51.528;6.982;2022-10-31T01:33:13;67740;;;12.57;100
51417;BME280;50158;51.528;6.982;2022-10-31T01:34:13;67740;;;12.56;100
51417;BME280;50158;51.528;6.982;2022-10-31T01:35:12;67740;;;12.55;100
51417;BME280;50158;51.528;6.982;2022-10-31T01:36:13;67740;;;12.58;100
51417;BME280;50158;51.528;6.982;2022-10-31T01:37:12;67740;;;12.59;100
51417;BME280;50158;51.528;6.982;2022-10-31T01:38:13;67740;;;12.58;100
51417;BME280;50158;51.528;6.982;2022-10-31T01:39:13;67730;;;12.53;100
51417;BME280;50158;51.528;6.982;2022-10-31T01:40:12;67730;;;12.49;100
51417;BME280;50158;51.528;6.982;2022-10-31T01:41:13;67720;;;12.42;100
51417;BME280;50158;51.528;6.982;2022-10-31T01:42:15;67720;;;12.38;100
51417;BME280;50158;51.528;6.982;2022-10-31T01:43:13;67710;;;12.34;100
51417;BME280;50158;51.528;6.982;2022-10-31T01:45:12;67700;;;12.27;100
51417;BME280;50158;51.528;6.982;2022-10-31T01:46:12;67720;;;12.4;100
51417;BME280;50158;51.528;6.982;2022-10-31T01:47:14;67710;;;12.36;100
51417;BME280;50158;51.528;6.982;2022-10-31T01:48:14;67700;;;12.28;100
51417;BME280;50158;51.528;6.982;2022-10-31T01:49:15;67700;;;12.2;100
51417;BME280;50158;51.528;6.982;2022-10-31T01:50:14;67700;;;12.18;100
51417;BME280;50158;51.528;6.982;2022-10-31T01:51:12;67700;;;12.23;100
51417;BME280;50158;51.528;6.982;2022-10-31T01:52:16;67690;;;12.17;100
51417;BME280;50158;51.528;6.982;2022-10-31T01:53:13;67690;;;12.1;100
51417;BME280;50158;51.528;6.982;2022-10-31T01:54:13;67680;;;12.05;100
51417;BME280;50158;51.528;6.982;2022-10-31T01:55:17;67680;;;12.02;100
51417;BME280;50158;51.528;6.982;2022-10-31T01:57:13;67680;;;12.08;100
51417;BME280;50158;51.528;6.982;2022-10-31T01:58:14;67680;;;12.04;100
51417;BME280;50158;51.528;6.982;2022-10-31T01:59:13;67670;;;11.97;100
51417;BME280;50158;51.528;6.982;2022-10-31T02:00:12;67670;;;11.92;100
51417;BME280;50158;51.528;6.982;2022-10-31T02:01:13;67660;;;11.89;100
51417;BME280;50158;51.528;6.982;2022-10-31T02:02:12;67660;;;11.88;100
51417;BME280;50158;51.528;6.982;2022-10-31T02:03:12;67660;;;11.89;100
51417;BME280;50158;51.528;6.982;2022-10-31T02:04:12;67660;;;11.9;100
51417;BME280;50158;51.528;6.982;2022-10-31T02:05:14;67660;;;11.86;100
51417;BME280;50158;51.528;6.982;2022-10-31T02:06:19;67660;;;11.9;100
51417;BME280;50158;51.528;6.982;2022-10-31T02:07:14;67670;;;11.99;100
51417;BME280;50158;51.528;6.982;2022-10-31T02:08:14;67670;;;12;100
51417;BME280;50158;51.528;6.982;2022-10-31T02:09:12;67670;;;11.93;100
51417;BME280;50158;51.528;6.982;2022-10-31T02:10:12;67660;;;11.85;100
51417;BME280;50158;51.528;6.982;2022-10-31T02:11:12;67650;;;11.79;100
51417;BME280;50158;51.528;6.982;2022-10-31T02:12:12;67650;;;11.75;100
51417;BME280;50158;51.528;6.982;2022-10-31T02:13:12;67650;;;11.71;100
51417;BME280;50158;51.528;6.982;2022-10-31T02:14:13;67640;;;11.69;100
51417;BME280;50158;51.528;6.982;2022-10-31T02:15:12;67640;;;11.67;100
51417;BME280;50158;51.528;6.982;2022-10-31T02:16:12;67640;;;11.66;100
51417;BME280;50158;51.528;6.982;2022-10-31T02:17:13;67640;;;11.66;100
51417;BME280;50158;51.528;6.982;2022-10-31T02:18:13;67640;;;11.68;100
51417;BME280;50158;51.528;6.982;2022-10-31T02:19:13;67640;;;11.68;100
51417;BME280;50158;51.528;6.982;2022-10-31T02:20:15;67640;;;11.64;100
51417;BME280;50158;51.528;6.982;2022-10-31T02:21:15;67630;;;11.61;100
51417;BME280;50158;51.528;6.982;2022-10-31T02:22:15;67630;;;11.61;100
51417;BME280;50158;51.528;6.982;2022-10-31T02:23:33;67640;;;11.63;100
51417;BME280;50158;51.528;6.982;2022-10-31T02:24:17;67640;;;11.63;100
51417;BME280;50158;51.528;6.982;2022-10-31T02:25:33;67640;;;11.68;100
51417;BME280;50158;51.528;6.982;2022-10-31T02:26:18;67640;;;11.67;100
51417;BME280;50158;51.528;6.982;2022-10-31T02:29:23;67640;;;11.65;100
51417;BME280;50158;51.528;6.982;2022-10-31T02:30:14;67640;;;11.64;100
51417;BME280;50158;51.528;6.982;2022-10-31T02:30:14;67630;;;11.61;100
51417;BME280;50158;51.528;6.982;2022-10-31T02:31:23;67630;;;11.62;100
51417;BME280;50158;51.528;6.982;2022-10-31T02:32:15;67630;;;11.62;100
51417;BME280;50158;51.528;6.982;2022-10-31T02:33:20;67630;;;11.6;100
51417;BME280;50158;51.528;6.982;2022-10-31T02:34:16;67630;;;11.59;100
51417;BME280;50158;51.528;6.982;2022-10-31T02:36:18;67620;;;11.54;100
51417;BME280;50158;51.528;6.982;2022-10-31T02:37:14;67620;;;11.51;100
51417;BME280;50158;51.528;6.982;2022-10-31T02:38:17;67620;;;11.5;100
51417;BME280;50158;51.528;6.982;2022-10-31T02:39:14;67620;;;11.49;100
51417;BME280;50158;51.528;6.982;2022-10-31T02:40:14;67620;;;11.45;100
51417;BME280;50158;51.528;6.982;2022-10-31T02:41:16;67610;;;11.43;100
51417;BME280;50158;51.528;6.982;2022-10-31T02:42:16;67630;;;11.55;100
51417;BME280;50158;51.528;6.982;2022-10-31T02:43:16;67640;;;11.66;100
51417;BME280;50158;51.528;6.982;2022-10-31T02:44:16;67640;;;11.66;100
51417;BME280;50158;51.528;6.982;2022-10-31T02:46:14;67620;;;11.49;100
51417;BME280;50158;51.528;6.982;2022-10-31T02:47:13;67620;;;11.47;100
51417;BME280;50158;51.528;6.982;2022-10-31T02:48:14;67620;;;11.46;100
51417;BME280;50158;51.528;6.982;2022-10-31T02:49:18;67620;;;11.47;100
51417;BME280;50158;51.528;6.982;2022-10-31T02:50:17;67620;;;11.44;100
51417;BME280;50158;51.528;6.982;2022-10-31T02:51:13;67610;;;11.41;100
51417;BME280;50158;51.528;6.982;2022-10-31T02:52:16;67610;;;11.39;100
51417;BME280;50158;51.528;6.982;2022-10-31T02:53:14;67600;;;11.35;100
51417;BME280;50158;51.528;6.982;2022-10-31T02:54:28;67600;;;11.31;100
51417;BME280;50158;51.528;6.982;2022-10-31T02:55:44;67600;;;11.29;100
51417;BME280;50158;51.528;6.982;2022-10-31T02:56:14;67600;;;11.31;100
51417;BME280;50158;51.528;6.982;2022-10-31T02:57:13;67600;;;11.33;100
51417;BME280;50158;51.528;6.982;2022-10-31T02:58:13;67600;;;11.28;100
51417;BME280;50158;51.528;6.982;2022-10-31T02:59:13;67590;;;11.24;100
51417;BME280;50158;51.528;6.982;2022-10-31T03:00:13;67590;;;11.23;100
51417;BME280;50158;51.528;6.982;2022-10-31T03:01:17;67590;;;11.25;100
51417;BME280;50158;51.528;6.982;2022-10-31T03:02:20;67590;;;11.2;100
51417;BME280;50158;51.528;6.982;2022-10-31T03:03:19;67590;;;11.18;100
51417;BME280;50158;51.528;6.982;2022-10-31T03:04:20;67590;;;11.19;100
51417;BME280;50158;51.528;6.982;2022-10-31T03:05:20;67590;;;11.17;100
51417;BME280;50158;51.528;6.982;2022-10-31T03:06:14;67580;;;11.17;100
51417;BME280;50158;51.528;6.982;2022-10-31T03:07:19;67580;;;11.14;100
51417;BME280;50158;51.528;6.982;2022-10-31T03:09:18;67580;;;11.11;100
51417;BME280;50158;51.528;6.982;2022-10-31T03:11:13;67570;;;11.05;100
51417;BME280;50158;51.528;6.982;2022-10-31T03:11:18;67580;;;11.08;100
51417;BME280;50158;51.528;6.982;2022-10-31T03:12:14;67570;;;11.02;100
51417;BME280;50158;51.528;6.982;2022-10-31T03:13:17;67570;;;10.99;100
51417;BME280;50158;51.528;6.982;2022-10-31T03:14:17;67570;;;10.98;100
51417;BME280;50158;51.528;6.982;2022-10-31T03:15:14;67560;;;10.97;100
51417;BME280;50158;51.528;6.982;2022-10-31T03:16:14;67560;;;10.97;100
51417;BME280;50158;51.528;6.982;2022-10-31T03:17:14;67560;;;10.95;100
51417;BME280;50158;51.528;6.982;2022-10-31T03:18:15;67560;;;10.93;100
51417;BME280;50158;51.528;6.982;2022-10-31T03:19:14;67560;;;10.91;100
51417;BME280;50158;51.528;6.982;2022-10-31T03:20:12;67550;;;10.85;100
51417;BME280;50158;51.528;6.982;2022-10-31T03:21:13;67550;;;10.82;100
51417;BME280;50158;51.528;6.982;2022-10-31T03:23:14;67550;;;10.82;100
51417;BME280;50158;51.528;6.982;2022-10-31T03:24:13;67540;;;10.78;100
51417;BME280;50158;51.528;6.982;2022-10-31T03:25:13;67540;;;10.78;100
51417;BME280;50158;51.528;6.982;2022-10-31T03:26:13;67550;;;10.82;100
51417;BME280;50158;51.528;6.982;2022-10-31T03:27:13;67560;;;10.89;100
51417;BME280;50158;51.528;6.982;2022-10-31T03:28:12;67550;;;10.86;100
51417;BME280;50158;51.528;6.982;2022-10-31T03:29:13;67550;;;10.83;100
51417;BME280;50158;51.528;6.982;2022-10-31T03:30:12;67550;;;10.82;100
51417;BME280;50158;51.528;6.982;2022-10-31T03:31:13;67550;;;10.82;100
51417;BME280;50158;51.528;6.982;2022-10-31T03:32:13;67550;;;10.83;100
51417;BME280;50158;51.528;6.982;2022-10-31T03:33:15;67550;;;10.81;100
51417;BME280;50158;51.528;6.982;2022-10-31T03:34:13;67540;;;10.77;100
51417;BME280;50158;51.528;6.982;2022-10-31T03:35:12;67540;;;10.78;100
51417;BME280;50158;51.528;6.982;2022-10-31T03:36:13;67540;;;10.75;100
51417;BME280;50158;51.528;6.982;2022-10-31T03:37:14;67530;;;10.69;100
51417;BME280;50158;51.528;6.982;2022-10-31T03:38:12;67530;;;10.67;100
51417;BME280;50158;51.528;6.982;2022-10-31T03:39:13;67530;;;10.66;100
51417;BME280;50158;51.528;6.982;2022-10-31T03:40:12;67530;;;10.62;100
51417;BME280;50158;51.528;6.982;2022-10-31T03:41:13;67520;;;10.59;100
51417;BME280;50158;51.528;6.982;2022-10-31T03:42:13;67520;;;10.56;100
51417;BME280;50158;51.528;6.982;2022-10-31T03:43:15;67520;;;10.53;100
51417;BME280;50158;51.528;6.982;2022-10-31T03:44:14;67520;;;10.55;100
51417;BME280;50158;51.528;6.982;2022-10-31T03:45:14;67520;;;10.55;100
51417;BME280;50158;51.528;6.982;2022-10-31T03:46:13;67520;;;10.57;100
51417;BME280;50158;51.528;6.982;2022-10-31T03:47:12;67530;;;10.63;100
51417;BME280;50158;51.528;6.982;2022-10-31T03:48:12;67530;;;10.66;100
51417;BME280;50158;51.528;6.982;2022-10-31T03:49:12;67520;;;10.58;100
51417;BME280;50158;51.528;6.982;2022-10-31T03:50:13;67510;;;10.5;100
51417;BME280;50158;51.528;6.982;2022-10-31T03:51:14;67510;;;10.46;100
51417;BME280;50158;51.528;6.982;2022-10-31T03:52:31;67500;;;10.42;100
51417;BME280;50158;51.528;6.982;2022-10-31T03:53:14;67500;;;10.42;100
51417;BME280;50158;51.528;6.982;2022-10-31T03:54:22;67520;;;10.53;100
51417;BME280;50158;51.528;6.982;2022-10-31T03:55:17;67520;;;10.58;100
51417;BME280;50158;51.528;6.982;2022-10-31T03:56:14;67510;;;10.5;100
51417;BME280;50158;51.528;6.982;2022-10-31T03:57:14;67510;;;10.48;100
51417;BME280;50158;51.528;6.982;2022-10-31T03:58:16;67520;;;10.58;100
51417;BME280;50158;51.528;6.982;2022-10-31T03:59:17;67520;;;10.55;100
51417;BME280;50158;51.528;6.982;2022-10-31T04:00:13;67510;;;10.52;100
51417;BME280;50158;51.528;6.982;2022-10-31T04:01:13;67510;;;10.47;100
51417;BME280;50158;51.528;6.982;2022-10-31T04:02:15;67510;;;10.43;100
51417;BME280;50158;51.528;6.982;2022-10-31T04:03:17;67500;;;10.39;100
51417;BME280;50158;51.528;6.982;2022-10-31T04:04:12;67500;;;10.36;100
51417;BME280;50158;51.528;6.982;2022-10-31T04:05:12;67490;;;10.32;100
51417;BME280;50158;51.528;6.982;2022-10-31T04:06:14;67490;;;10.3;100
51417;BME280;50158;51.528;6.982;2022-10-31T04:07:12;67490;;;10.28;100
51417;BME280;50158;51.528;6.982;2022-10-31T04:08:14;67490;;;10.27;100
51417;BME280;50158;51.528;6.982;2022-10-31T04:09:13;67490;;;10.25;100
51417;BME280;50158;51.528;6.982;2022-10-31T04:10:13;67480;;;10.22;100
51417;BME280;50158;51.528;6.982;2022-10-31T04:11:12;67490;;;10.24;100
51417;BME280;50158;51.528;6.982;2022-10-31T04:12:13;67490;;;10.25;100
51417;BME280;50158;51.528;6.982;2022-10-31T04:13:14;67490;;;10.25;100
51417;BME280;50158;51.528;6.982;2022-10-31T04:14:12;67490;;;10.26;100
51417;BME280;50158;51.528;6.982;2022-10-31T04:15:12;67490;;;10.27;100
51417;BME280;50158;51.528;6.982;2022-10-31T04:16:12;67490;;;10.3;100
51417;BME280;50158;51.528;6.982;2022-10-31T04:17:13;67490;;;10.32;100
51417;BME280;50158;51.528;6.982;2022-10-31T04:18:12;67490;;;10.32;100
51417;BME280;50158;51.528;6.982;2022-10-31T04:19:12;67500;;;10.36;100
51417;BME280;50158;51.528;6.982;2022-10-31T04:20:15;67510;;;10.44;100
51417;BME280;50158;51.528;6.982;2022-10-31T04:21:12;67510;;;10.44;100
51417;BME280;50158;51.528;6.982;2022-10-31T04:22:12;67500;;;10.43;100
51417;BME280;50158;51.528;6.982;2022-10-31T04:23:14;67500;;;10.42;100
51417;BME280;50158;51.528;6.982;2022-10-31T04:24:13;67500;;;10.42;100
51417;BME280;50158;51.528;6.982;2022-10-31T04:25:12;67510;;;10.45;100
51417;BME280;50158;51.528;6.982;2022-10-31T04:26:13;67510;;;10.44;100
51417;BME280;50158;51.528;6.982;2022-10-31T04:27:13;67510;;;10.51;100
51417;BME280;50158;51.528;6.982;2022-10-31T04:28:12;67510;;;10.52;100
51417;BME280;50158;51.528;6.982;2022-10-31T04:29:12;67520;;;10.62;100
51417;BME280;50158;51.528;6.982;2022-10-31T04:30:12;67520;;;10.59;100
51417;BME280;50158;51.528;6.982;2022-10-31T04:31:12;67520;;;10.57;100
51417;BME280;50158;51.528;6.982;2022-10-31T04:32:13;67520;;;10.58;100
51417;BME280;50158;51.528;6.982;2022-10-31T04:33:12;67520;;;10.57;100
51417;BME280;50158;51.528;6.982;2022-10-31T04:34:12;67520;;;10.56;100
51417;BME280;50158;51.528;6.982;2022-10-31T04:35:12;67520;;;10.58;100
51417;BME280;50158;51.528;6.982;2022-10-31T04:36:12;67520;;;10.56;100
51417;BME280;50158;51.528;6.982;2022-10-31T04:37:13;67520;;;10.58;100
51417;BME280;50158;51.528;6.982;2022-10-31T04:38:12;67520;;;10.57;100
51417;BME280;50158;51.528;6.982;2022-10-31T04:39:13;67520;;;10.58;100
51417;BME280;50158;51.528;6.982;2022-10-31T04:40:12;67520;;;10.62;100
51417;BME280;50158;51.528;6.982;2022-10-31T04:41:13;67530;;;10.65;100
51417;BME280;50158;51.528;6.982;2022-10-31T04:42:12;67530;;;10.69;100
51417;BME280;50158;51.528;6.982;2022-10-31T04:43:12;67530;;;10.66;100
51417;BME280;50158;51.528;6.982;2022-10-31T04:44:13;67530;;;10.66;100
51417;BME280;50158;51.528;6.982;2022-10-31T04:45:12;67530;;;10.65;100
51417;BME280;50158;51.528;6.982;2022-10-31T04:46:13;67530;;;10.64;100
51417;BME280;50158;51.528;6.982;2022-10-31T04:47:12;67530;;;10.64;100
51417;BME280;50158;51.528;6.982;2022-10-31T04:48:12;67530;;;10.68;100
51417;BME280;50158;51.528;6.982;2022-10-31T04:49:12;67540;;;10.78;100
51417;BME280;50158;51.528;6.982;2022-10-31T04:50:13;67540;;;10.75;100
51417;BME280;50158;51.528;6.982;2022-10-31T04:51:12;67540;;;10.71;100
51417;BME280;50158;51.528;6.982;2022-10-31T04:52:12;67530;;;10.68;100
51417;BME280;50158;51.528;6.982;2022-10-31T04:53:12;67530;;;10.68;100
51417;BME280;50158;51.528;6.982;2022-10-31T04:54:13;67530;;;10.67;100
51417;BME280;50158;51.528;6.982;2022-10-31T04:55:13;67530;;;10.67;100
51417;BME280;50158;51.528;6.982;2022-10-31T04:56:14;67530;;;10.68;100
51417;BME280;50158;51.528;6.982;2022-10-31T04:57:12;67530;;;10.65;100
51417;BME280;50158;51.528;6.982;2022-10-31T04:58:12;67530;;;10.67;100
51417;BME280;50158;51.528;6.982;2022-10-31T04:59:12;67530;;;10.65;100
51417;BME280;50158;51.528;6.982;2022-10-31T05:01:13;67540;;;10.74;100
51417;BME280;50158;51.528;6.982;2022-10-31T05:02:12;67540;;;10.74;100
51417;BME280;50158;51.528;6.982;2022-10-31T05:03:13;67530;;;10.7;100
51417;BME280;50158;51.528;6.982;2022-10-31T05:04:12;67530;;;10.67;100
51417;BME280;50158;51.528;6.982;2022-10-31T05:05:13;67530;;;10.65;100
51417;BME280;50158;51.528;6.982;2022-10-31T05:06:12;67530;;;10.63;100
51417;BME280;50158;51.528;6.982;2022-10-31T05:07:12;67520;;;10.6;100
51417;BME280;50158;51.528;6.982;2022-10-31T05:08:13;67520;;;10.59;100
51417;BME280;50158;51.528;6.982;2022-10-31T05:09:12;67520;;;10.59;100
51417;BME280;50158;51.528;6.982;2022-10-31T05:10:14;67530;;;10.62;100
51417;BME280;50158;51.528;6.982;2022-10-31T05:11:12;67520;;;10.59;100
51417;BME280;50158;51.528;6.982;2022-10-31T05:12:13;67520;;;10.56;100
51417;BME280;50158;51.528;6.982;2022-10-31T05:13:12;67520;;;10.56;100
51417;BME280;50158;51.528;6.982;2022-10-31T05:14:12;67520;;;10.58;100
51417;BME280;50158;51.528;6.982;2022-10-31T05:15:13;67520;;;10.54;100
51417;BME280;50158;51.528;6.982;2022-10-31T05:16:12;67510;;;10.49;100
51417;BME280;50158;51.528;6.982;2022-10-31T05:17:12;67510;;;10.48;100
51417;BME280;50158;51.528;6.982;2022-10-31T05:18:13;67510;;;10.45;100
51417;BME280;50158;51.528;6.982;2022-10-31T05:19:13;67500;;;10.42;100
51417;BME280;50158;51.528;6.982;2022-10-31T05:20:13;67510;;;10.45;100
51417;BME280;50158;51.528;6.982;2022-10-31T05:21:13;67520;;;10.56;100
51417;BME280;50158;51.528;6.982;2022-10-31T05:22:12;67530;;;10.7;100
51417;BME280;50158;51.528;6.982;2022-10-31T05:23:12;67530;;;10.69;100
51417;BME280;50158;51.528;6.982;2022-10-31T05:24:13;67520;;;10.55;100
51417;BME280;50158;51.528;6.982;2022-10-31T05:25:13;67510;;;10.48;100
51417;BME280;50158;51.528;6.982;2022-10-31T05:26:13;67510;;;10.44;100
51417;BME280;50158;51.528;6.982;2022-10-31T05:27:12;67510;;;10.44;100
51417;BME280;50158;51.528;6.982;2022-10-31T05:28:13;67500;;;10.41;100
51417;BME280;50158;51.528;6.982;2022-10-31T05:29:12;67500;;;10.38;100
51417;BME280;50158;51.528;6.982;2022-10-31T05:30:13;67500;;;10.35;100
51417;BME280;50158;51.528;6.982;2022-10-31T05:31:13;67490;;;10.32;100
51417;BME280;50158;51.528;6.982;2022-10-31T05:32:12;67490;;;10.29;100
51417;BME280;50158;51.528;6.982;2022-10-31T05:33:13;67500;;;10.36;100
51417;BME280;50158;51.528;6.982;2022-10-31T05:34:12;67490;;;10.34;100
51417;BME280;50158;51.528;6.982;2022-10-31T05:35:13;67500;;;10.36;100
51417;BME280;50158;51.528;6.982;2022-10-31T05:36:12;67500;;;10.37;100
51417;BME280;50158;51.528;6.982;2022-10-31T05:37:13;67500;;;10.36;100
51417;BME280;50158;51.528;6.982;2022-10-31T05:38:12;67500;;;10.37;100
51417;BME280;50158;51.528;6.982;2022-10-31T05:39:12;67490;;;10.34;100
51417;BME280;50158;51.528;6.982;2022-10-31T05:40:12;67490;;;10.33;100
51417;BME280;50158;51.528;6.982;2022-10-31T05:41:13;67490;;;10.26;100
51417;BME280;50158;51.528;6.982;2022-10-31T05:42:13;67480;;;10.22;100
51417;BME280;50158;51.528;6.982;2022-10-31T05:43:12;67480;;;10.21;100
51417;BME280;50158;51.528;6.982;2022-10-31T05:44:12;67480;;;10.18;100
51417;BME280;50158;51.528;6.982;2022-10-31T05:45:13;67480;;;10.14;100
51417;BME280;50158;51.528;6.982;2022-10-31T05:46:12;67470;;;10.13;100
51417;BME280;50158;51.528;6.982;2022-10-31T05:47:12;67470;;;10.14;100
51417;BME280;50158;51.528;6.982;2022-10-31T05:48:12;67470;;;10.13;100
51417;BME280;50158;51.528;6.982;2022-10-31T05:49:12;67470;;;10.1;100
51417;BME280;50158;51.528;6.982;2022-10-31T05:50:13;67470;;;10.1;100